Maizeville, Pennsylvania
Current Conditions -  °F | °C
As of 5:15 PM on Monday 20 Oct 2014 (Local Time) from KHZL Reporting Station
Clear Clear  
Wind Chill: 54°   Ceiling: Unl
Heat Index: 54°   Visibility: 10mi
Dew Point: 37°   Wind: 6mph
Humidity: 54%   Direction: 150°SSE
Pressure: 29.97"   Gusts: NA
Location:  40.8017°N, 76.2096°W
Report Text: KHZL 202115Z AUTO 15005KT 10SM CLR 12/03 A2997 RMK AO2
Loading
Personal Weather Stations






























Interactive Weather Map
Tropical Storm Tracking
New forecast layout! Learn more

10-Day Weather Forecast

Advertisements
Track Severe Weather on mobile